createdAt,value
2022-12-17T00:02:42.594Z,35.70
2022-12-17T00:05:28.547Z,37.35
2022-12-17T00:08:18.178Z,37.45
2022-12-17T00:11:04.375Z,33.50
2022-12-17T00:13:51.267Z,33.38
2022-12-17T00:16:37.910Z,33.17
2022-12-17T00:19:23.774Z,32.65
2022-12-17T00:22:09.654Z,34.67
2022-12-17T00:24:56.405Z,34.35
2022-12-17T00:27:42.374Z,32.28
2022-12-17T00:30:30.034Z,33.83
2022-12-17T00:33:16.037Z,33.42
2022-12-17T00:35:58.621Z,32.90
2022-12-17T00:38:44.678Z,33.78
2022-12-17T00:41:30.475Z,34.33
2022-12-17T00:44:20.389Z,36.38
2022-12-17T00:47:07.676Z,36.63
2022-12-17T00:49:53.637Z,32.63
2022-12-17T00:52:42.147Z,32.85
2022-12-17T00:55:28.376Z,35.97
2022-12-17T00:58:15.068Z,36.30
2022-12-17T01:01:01.550Z,29.90
2022-12-17T01:03:48.634Z,31.33
2022-12-17T01:06:34.734Z,27.02
2022-12-17T01:09:20.326Z,33.53
2022-12-17T01:12:06.113Z,32.72
2022-12-17T01:14:51.671Z,32.55
2022-12-17T01:17:37.768Z,32.45
2022-12-17T01:20:26.050Z,33.80
2022-12-17T01:23:11.660Z,34.45
2022-12-17T01:25:57.658Z,36.63
2022-12-17T01:28:44.479Z,36.70
2022-12-17T01:31:39.022Z,35.20
2022-12-17T01:34:39.514Z,31.25
2022-12-17T01:37:26.708Z,29.65
2022-12-17T01:40:12.764Z,35.80
2022-12-17T01:42:59.863Z,33.10
2022-12-17T01:45:46.253Z,29.30
2022-12-17T01:48:34.396Z,26.30
2022-12-17T01:51:20.976Z,36.40
2022-12-17T01:54:06.286Z,30.67
2022-12-17T01:56:53.022Z,32.10
2022-12-17T01:59:43.796Z,31.65
2022-12-17T02:02:29.687Z,32.45
2022-12-17T02:05:15.519Z,35.97
2022-12-17T02:08:17.422Z,28.67
2022-12-17T02:11:08.712Z,32.58
2022-12-17T02:13:58.419Z,34.08
2022-12-17T02:16:49.903Z,32.50
2022-12-17T02:19:42.818Z,34.90
2022-12-17T02:22:34.493Z,30.10
2022-12-17T02:25:24.875Z,31.95
2022-12-17T02:28:12.310Z,29.92
2022-12-17T02:30:54.871Z,31.33
2022-12-17T02:33:40.746Z,33.17
2022-12-17T02:36:27.253Z,29.60
2022-12-17T02:39:13.182Z,26.55
2022-12-17T02:42:02.077Z,31.90
2022-12-17T02:44:50.320Z,24.52
2022-12-17T02:47:37.578Z,28.98
2022-12-17T02:50:24.143Z,27.60
2022-12-17T02:53:09.387Z,31.67
2022-12-17T02:55:55.948Z,31.73
2022-12-17T02:58:42.104Z,26.83
2022-12-17T03:01:29.258Z,33.05
2022-12-17T03:04:15.211Z,27.20
2022-12-17T03:07:02.650Z,26.10
2022-12-17T03:09:48.749Z,28.40
2022-12-17T03:12:34.538Z,30.08
2022-12-17T03:15:20.245Z,33.83
2022-12-17T03:18:07.163Z,31.75
2022-12-17T03:20:53.059Z,22.05
2022-12-17T03:23:39.151Z,26.85
2022-12-17T03:26:25.585Z,32.22
2022-12-17T03:29:11.026Z,31.55
2022-12-17T03:31:56.759Z,30.48
2022-12-17T03:34:43.964Z,27.13
2022-12-17T03:37:29.468Z,31.17
2022-12-17T03:40:15.332Z,13.23
2022-12-17T03:43:00.996Z,26.60
2022-12-17T03:45:46.755Z,24.13
2022-12-17T03:48:33.741Z,27.88
2022-12-17T03:51:29.905Z,29.67
2022-12-17T03:54:24.264Z,22.63
2022-12-17T03:57:15.793Z,22.35
2022-12-17T04:00:01.868Z,22.02
2022-12-17T04:02:47.913Z,23.52
2022-12-17T04:05:33.977Z,24.15
2022-12-17T04:08:21.291Z,22.17
2022-12-17T04:11:07.236Z,18.17
2022-12-17T04:13:53.182Z,24.38
2022-12-17T04:16:38.860Z,28.58
2022-12-17T04:19:24.630Z,27.13
2022-12-17T04:22:10.696Z,28.85
2022-12-17T04:24:57.590Z,28.73
2022-12-17T04:27:43.287Z,20.25
2022-12-17T04:30:30.032Z,29.92
2022-12-17T04:33:24.384Z,20.83
2022-12-17T04:36:10.377Z,29.15
2022-12-17T04:38:56.219Z,27.38
2022-12-17T04:41:43.602Z,26.85
2022-12-17T04:44:29.567Z,31.38
2022-12-17T04:47:15.485Z,30.67
2022-12-17T04:50:01.578Z,27.95
2022-12-17T04:52:47.548Z,33.30
2022-12-17T04:55:33.410Z,32.08
2022-12-17T04:58:22.505Z,25.27
2022-12-17T05:01:09.964Z,35.53
2022-12-17T05:03:56.131Z,34.92
2022-12-17T05:06:42.097Z,33.33
2022-12-17T05:09:28.000Z,32.17
2022-12-17T05:12:13.906Z,34.95
2022-12-17T05:15:01.259Z,34.00
2022-12-17T05:17:47.093Z,32.92
2022-12-17T05:20:33.012Z,30.38
2022-12-17T05:23:23.553Z,31.90
2022-12-17T05:26:16.406Z,30.40
2022-12-17T05:29:02.493Z,33.20
2022-12-17T05:31:49.706Z,32.42
2022-12-17T05:34:35.667Z,34.97
2022-12-17T05:37:21.547Z,37.20
2022-12-17T05:40:12.437Z,38.40
2022-12-17T05:42:58.631Z,35.17
2022-12-17T05:45:44.548Z,32.58
2022-12-17T05:48:31.660Z,34.60
2022-12-17T05:51:17.448Z,22.73
2022-12-17T05:54:03.395Z,22.83
2022-12-17T05:56:49.317Z,35.30
2022-12-17T05:59:35.232Z,24.48
2022-12-17T06:02:21.247Z,33.33
2022-12-17T06:05:08.515Z,28.75
2022-12-17T06:07:54.429Z,29.63
2022-12-17T06:10:40.472Z,22.55
2022-12-17T06:13:26.394Z,24.65
2022-12-17T06:16:12.918Z,27.15
2022-12-17T06:18:58.816Z,32.38
2022-12-17T06:21:46.046Z,27.67
2022-12-17T06:24:32.068Z,32.13
2022-12-17T06:27:18.021Z,35.30
2022-12-17T06:30:03.961Z,29.67
2022-12-17T06:32:49.859Z,39.83
2022-12-17T06:35:35.562Z,29.60
2022-12-17T06:38:24.399Z,33.67
2022-12-17T06:41:10.417Z,30.77
2022-12-17T06:43:56.155Z,32.15
2022-12-17T06:46:42.189Z,27.65
2022-12-17T06:49:28.006Z,20.40
2022-12-17T06:52:13.891Z,23.02
2022-12-17T06:55:01.029Z,29.15
2022-12-17T06:57:50.376Z,17.58
2022-12-17T07:00:36.684Z,22.23
2022-12-17T07:03:22.622Z,25.23
2022-12-17T07:06:08.416Z,19.13
2022-12-17T07:08:54.337Z,32.25
2022-12-17T07:11:41.445Z,40.03
2022-12-17T07:14:27.282Z,34.80
2022-12-17T07:17:21.574Z,35.03
2022-12-17T07:20:07.325Z,31.83
2022-12-17T07:22:53.303Z,35.80
2022-12-17T07:25:44.346Z,35.88
2022-12-17T07:28:33.087Z,34.83
2022-12-17T07:31:19.011Z,37.22
2022-12-17T07:34:04.991Z,35.72
2022-12-17T07:36:51.036Z,29.55
2022-12-17T07:39:37.039Z,28.00
2022-12-17T07:42:23.176Z,33.45
2022-12-17T07:45:10.384Z,30.00
2022-12-17T07:47:56.458Z,32.83
2022-12-17T07:50:42.395Z,15.77
2022-12-17T07:53:28.303Z,32.20
2022-12-17T07:56:14.279Z,34.33
2022-12-17T07:59:00.070Z,33.72
2022-12-17T08:01:47.392Z,33.33
2022-12-17T08:04:33.500Z,32.42
2022-12-17T08:07:19.266Z,31.60
2022-12-17T08:10:05.080Z,30.23
2022-12-17T08:12:51.120Z,26.73
2022-12-17T08:15:36.867Z,23.08
2022-12-17T08:18:26.766Z,22.17
2022-12-17T08:21:12.881Z,18.50
2022-12-17T08:23:58.717Z,34.72
2022-12-17T08:26:48.144Z,32.17
2022-12-17T08:29:34.292Z,32.00
2022-12-17T08:32:19.324Z,26.17
2022-12-17T08:35:06.562Z,31.95
2022-12-17T08:37:52.482Z,25.35
2022-12-17T08:40:38.326Z,28.95
2022-12-17T08:43:24.298Z,27.85
2022-12-17T08:46:10.740Z,29.85
2022-12-17T08:48:56.683Z,33.47
2022-12-17T08:51:43.986Z,37.40
2022-12-17T08:54:30.087Z,35.35
2022-12-17T08:57:27.019Z,34.47
2022-12-17T09:00:16.610Z,34.40
2022-12-17T09:03:02.542Z,23.50
2022-12-17T09:05:48.617Z,33.00
2022-12-17T09:08:35.869Z,33.53
2022-12-17T09:11:21.841Z,32.55
2022-12-17T09:14:19.236Z,31.95
2022-12-17T09:17:05.678Z,39.85
2022-12-17T09:19:53.818Z,34.47
2022-12-17T09:22:39.918Z,34.70
2022-12-17T09:25:27.606Z,33.50
2022-12-17T09:28:13.581Z,37.83
2022-12-17T09:30:59.526Z,34.25
2022-12-17T09:33:45.509Z,36.22
2022-12-17T09:36:31.418Z,34.83
2022-12-17T09:39:17.348Z,33.50
2022-12-17T09:42:11.131Z,34.05
2022-12-17T09:45:03.729Z,31.20
2022-12-17T09:48:07.330Z,27.05
2022-12-17T09:50:53.271Z,36.22
2022-12-17T09:53:42.868Z,33.15
2022-12-17T09:56:30.437Z,34.50
2022-12-17T09:59:17.817Z,29.70
2022-12-17T10:02:03.536Z,31.90
2022-12-17T10:04:52.775Z,32.35
2022-12-17T10:07:41.854Z,37.33
2022-12-17T10:10:34.895Z,36.17
2022-12-17T10:13:20.886Z,39.75
2022-12-17T10:16:08.176Z,32.72
2022-12-17T10:18:54.235Z,35.72
2022-12-17T10:21:42.972Z,33.55
2022-12-17T10:24:41.427Z,34.58
2022-12-17T10:27:28.424Z,33.65
2022-12-17T10:30:14.212Z,33.22
2022-12-17T10:33:01.476Z,37.58
2022-12-17T10:35:54.610Z,35.50
2022-12-17T10:38:41.758Z,35.33
2022-12-17T10:41:38.776Z,34.55
2022-12-17T10:44:42.070Z,38.80
2022-12-17T10:47:31.174Z,32.75
2022-12-17T10:50:19.634Z,35.72
2022-12-17T10:53:06.430Z,35.45
2022-12-17T10:55:53.575Z,35.95
2022-12-17T10:58:40.956Z,33.42
2022-12-17T11:01:30.561Z,37.60
2022-12-17T11:04:32.014Z,38.05
2022-12-17T11:07:19.238Z,36.33
2022-12-17T11:10:09.765Z,37.67
2022-12-17T11:12:58.313Z,39.15
2022-12-17T11:15:46.243Z,38.10
2022-12-17T11:18:36.758Z,36.42
2022-12-17T11:21:26.260Z,37.03
2022-12-17T11:24:19.123Z,36.78
2022-12-17T11:27:10.993Z,41.83
2022-12-17T11:29:56.990Z,43.03
2022-12-17T11:33:09.535Z,43.00
2022-12-17T11:36:01.716Z,40.70
2022-12-17T11:38:56.957Z,38.40
2022-12-17T11:41:56.081Z,36.53
2022-12-17T11:44:51.309Z,39.22
2022-12-17T11:47:46.236Z,35.67
2022-12-17T11:50:39.691Z,37.95
2022-12-17T11:53:38.230Z,37.03
2022-12-17T11:56:28.689Z,37.03
2022-12-17T11:59:18.803Z,42.63
2022-12-17T12:02:08.078Z,42.92
2022-12-17T12:05:26.263Z,41.88
2022-12-17T12:08:31.451Z,35.60
2022-12-17T12:11:29.722Z,37.78
2022-12-17T12:14:23.254Z,37.65
2022-12-17T12:17:13.585Z,38.20
2022-12-17T12:20:06.435Z,36.67
2022-12-17T12:22:56.306Z,36.53
2022-12-17T12:25:49.148Z,35.45
2022-12-17T12:28:43.556Z,37.05
2022-12-17T12:31:37.620Z,40.80
2022-12-17T12:34:27.393Z,38.45
2022-12-17T12:37:13.327Z,39.00
2022-12-17T12:40:03.960Z,37.65
2022-12-17T12:45:50.009Z,35.33
2022-12-17T12:48:48.163Z,41.35
2022-12-17T12:51:38.035Z,39.85
2022-12-17T12:54:42.212Z,44.47
2022-12-17T12:57:49.908Z,37.75
2022-12-17T13:00:48.496Z,42.25
2022-12-17T13:03:43.930Z,40.15
2022-12-17T13:06:12.948Z,42.67
2022-12-17T13:08:41.465Z,40.90
2022-12-17T13:11:27.217Z,39.15
2022-12-17T13:13:56.858Z,38.15
2022-12-17T13:16:34.024Z,39.87
2022-12-17T13:19:05.955Z,41.70
2022-12-17T13:21:34.259Z,84.10
2022-12-17T13:24:11.738Z,62.15
2022-12-17T13:26:46.502Z,55.15
2022-12-17T13:29:24.347Z,46.92
2022-12-17T13:32:03.616Z,54.25
2022-12-17T13:34:42.397Z,48.03
2022-12-17T13:37:15.853Z,39.08
2022-12-17T13:39:50.986Z,47.00
2022-12-17T13:42:23.320Z,38.13
2022-12-17T13:44:55.646Z,42.13
2022-12-17T13:47:25.530Z,46.88
2022-12-17T13:50:32.730Z,45.03
2022-12-17T13:52:45.424Z,43.30
2022-12-17T13:55:21.034Z,41.50
2022-12-17T13:57:50.504Z,43.13
2022-12-17T14:00:22.097Z,41.50
2022-12-17T14:02:50.754Z,46.15
2022-12-17T14:05:32.622Z,47.72
2022-12-17T14:08:03.245Z,48.47
2022-12-17T14:13:04.060Z,55.13
2022-12-17T14:15:32.347Z,50.53
2022-12-17T14:18:00.934Z,50.15
2022-12-17T14:20:32.337Z,52.88
2022-12-17T14:23:01.962Z,47.90
2022-12-17T14:25:32.811Z,45.03
2022-12-17T14:28:02.667Z,46.83
2022-12-17T14:30:43.039Z,47.63
2022-12-17T14:33:29.178Z,50.90
2022-12-17T14:36:02.515Z,54.15
2022-12-17T14:38:38.437Z,50.53
2022-12-17T14:41:36.335Z,52.75
2022-12-17T14:44:05.486Z,51.58
2022-12-17T14:46:35.662Z,48.47
2022-12-17T14:49:05.909Z,49.47
2022-12-17T14:51:38.034Z,53.22
2022-12-17T14:54:07.933Z,50.60
2022-12-17T14:56:36.177Z,49.13
2022-12-17T14:59:04.416Z,48.88
2022-12-17T15:01:33.130Z,49.80
2022-12-17T15:04:01.539Z,53.53
2022-12-17T15:06:29.927Z,47.08
2022-12-17T15:08:59.494Z,46.45
2022-12-17T15:11:28.447Z,47.20
2022-12-17T15:13:56.997Z,45.38
2022-12-17T15:16:25.426Z,47.00
2022-12-17T15:18:54.183Z,51.75
2022-12-17T15:21:22.532Z,54.30
2022-12-17T15:23:50.949Z,56.15
2022-12-17T15:26:21.401Z,56.03
2022-12-17T15:28:49.594Z,55.08
2022-12-17T15:31:23.187Z,62.17
2022-12-17T15:33:53.130Z,59.40
2022-12-17T15:36:21.509Z,62.63
2022-12-17T15:38:49.809Z,58.65
2022-12-17T15:41:35.836Z,54.03
2022-12-17T15:44:05.999Z,47.55
2022-12-17T15:46:34.696Z,38.22
2022-12-17T15:49:03.830Z,46.55
2022-12-17T15:51:32.301Z,45.22
2022-12-17T15:54:00.767Z,45.42
2022-12-17T15:56:29.846Z,44.38
2022-12-17T15:58:58.598Z,44.15
2022-12-17T16:01:28.423Z,65.88
2022-12-17T16:03:56.807Z,44.92
2022-12-17T16:06:25.221Z,59.15
2022-12-17T16:08:53.433Z,50.80
2022-12-17T16:11:22.093Z,60.70
2022-12-17T16:13:54.998Z,56.80
2022-12-17T16:16:23.981Z,54.08
2022-12-17T16:18:53.605Z,55.05
2022-12-17T16:21:21.860Z,51.20
2022-12-17T16:23:50.220Z,54.80
2022-12-17T16:26:18.498Z,48.40
2022-12-17T16:28:47.058Z,41.60
2022-12-17T16:31:16.590Z,35.55
2022-12-17T16:33:47.462Z,39.67
2022-12-17T16:36:18.625Z,41.80
2022-12-17T16:38:48.360Z,38.08
2022-12-17T16:41:17.611Z,30.10
2022-12-17T16:43:46.495Z,33.83
2022-12-17T16:46:28.973Z,37.40
2022-12-17T16:48:58.817Z,35.28
2022-12-17T16:51:29.765Z,37.58
2022-12-17T16:53:58.987Z,82.60
2022-12-17T16:56:29.168Z,108.22
2022-12-17T16:58:57.692Z,70.47
2022-12-17T17:01:28.168Z,46.75
2022-12-17T17:03:57.399Z,49.45
2022-12-17T17:06:30.260Z,41.00
2022-12-17T17:09:04.647Z,46.17
2022-12-17T17:11:32.958Z,44.75
2022-12-17T17:14:01.305Z,44.10
2022-12-17T17:16:30.419Z,50.97
2022-12-17T17:18:58.761Z,44.53
2022-12-17T17:21:29.524Z,43.92
2022-12-17T17:23:59.953Z,43.22
2022-12-17T17:28:58.323Z,48.33
2022-12-17T17:32:01.061Z,43.58
2022-12-17T17:34:15.958Z,39.95
2022-12-17T17:36:44.331Z,38.88
2022-12-17T17:39:12.600Z,35.95
2022-12-17T17:41:42.304Z,36.63
2022-12-17T17:44:13.211Z,33.80
2022-12-17T17:46:41.811Z,60.45
2022-12-17T17:49:11.897Z,41.70
2022-12-17T17:52:12.354Z,51.42
2022-12-17T17:54:30.728Z,46.15
2022-12-17T17:57:00.359Z,55.10
2022-12-17T17:59:33.395Z,51.88
2022-12-17T18:02:02.451Z,50.15
2022-12-17T18:04:31.702Z,52.45
2022-12-17T18:07:24.152Z,71.75
2022-12-17T18:09:48.203Z,60.42
2022-12-17T18:12:35.512Z,61.28
2022-12-17T18:15:19.102Z,167.77
2022-12-17T18:17:51.004Z,140.80
2022-12-17T18:20:20.607Z,150.73
2022-12-17T18:22:50.488Z,143.57
2022-12-17T18:25:18.940Z,68.55
2022-12-17T18:27:48.720Z,109.40
2022-12-17T18:30:17.311Z,121.70
2022-12-17T18:32:46.203Z,113.25
2022-12-17T18:35:14.505Z,96.45
2022-12-17T18:37:42.843Z,121.28
2022-12-17T18:40:11.857Z,113.57
2022-12-17T18:42:57.754Z,112.32
2022-12-17T18:45:27.320Z,145.05
2022-12-17T18:47:55.545Z,117.63
2022-12-17T18:50:23.877Z,120.20
2022-12-17T18:52:52.130Z,126.93
2022-12-17T18:55:20.439Z,135.90
2022-12-17T18:57:48.693Z,118.38
2022-12-17T19:00:17.173Z,127.50
2022-12-17T19:02:46.930Z,157.57
2022-12-17T19:05:15.487Z,148.82
2022-12-17T19:07:43.804Z,140.15
2022-12-17T19:10:12.082Z,118.78
2022-12-17T19:12:40.397Z,97.55
2022-12-17T19:15:09.957Z,110.30
2022-12-17T19:17:38.178Z,151.10
2022-12-17T19:20:09.228Z,99.93
2022-12-17T19:22:37.532Z,81.13
2022-12-17T19:25:06.511Z,143.48
2022-12-17T19:27:34.722Z,124.45
2022-12-17T19:30:02.991Z,99.13
2022-12-17T19:32:31.539Z,122.38
2022-12-17T19:34:59.748Z,64.05
2022-12-17T19:37:29.429Z,179.35
2022-12-17T19:39:57.702Z,140.50
2022-12-17T19:42:26.909Z,119.38
2022-12-17T19:44:56.747Z,164.65
2022-12-17T19:47:25.248Z,94.30
2022-12-17T19:49:53.540Z,154.73
2022-12-17T19:52:21.805Z,112.80
2022-12-17T19:54:51.462Z,140.70
2022-12-17T19:57:19.805Z,129.77
2022-12-17T19:59:48.068Z,135.05
2022-12-17T20:02:17.432Z,94.22
2022-12-17T20:04:45.854Z,89.80
2022-12-17T20:07:14.055Z,132.85
2022-12-17T20:09:44.608Z,98.80
2022-12-17T20:12:14.248Z,92.00
2022-12-17T20:14:42.516Z,103.32
2022-12-17T20:17:10.995Z,88.70
2022-12-17T20:19:39.303Z,94.90
2022-12-17T20:22:07.865Z,113.18
2022-12-17T20:24:37.266Z,100.97
2022-12-17T20:27:05.831Z,120.03
2022-12-17T20:29:35.826Z,106.47
2022-12-17T20:32:04.252Z,108.30
2022-12-17T20:34:32.778Z,109.50
2022-12-17T20:37:01.082Z,87.60
2022-12-17T20:39:29.912Z,93.32
2022-12-17T20:41:58.540Z,86.82
2022-12-17T20:44:26.922Z,83.55
2022-12-17T20:46:56.633Z,84.90
2022-12-17T20:49:24.891Z,86.45
2022-12-17T20:51:53.182Z,90.90
2022-12-17T20:54:22.138Z,87.80
2022-12-17T20:56:50.401Z,80.20
2022-12-17T20:59:19.770Z,85.32
2022-12-17T21:01:54.260Z,94.75
2022-12-17T21:04:25.582Z,94.75
2022-12-17T21:06:53.887Z,95.80
2022-12-17T21:09:22.863Z,94.80
2022-12-17T21:11:51.304Z,97.13
2022-12-17T21:14:20.298Z,87.55
2022-12-17T21:16:48.692Z,112.22
2022-12-17T21:19:18.848Z,95.80
2022-12-17T21:21:48.814Z,86.38
2022-12-17T21:24:17.155Z,73.40
2022-12-17T21:26:47.226Z,71.80
2022-12-17T21:29:16.601Z,72.32
2022-12-17T21:31:46.820Z,84.32
2022-12-17T21:34:17.988Z,68.55
2022-12-17T21:36:48.392Z,69.57
2022-12-17T21:39:17.943Z,87.93
2022-12-17T21:42:07.374Z,93.17
2022-12-17T21:44:36.613Z,109.25
2022-12-17T21:47:05.499Z,80.45
2022-12-17T21:49:34.833Z,67.65
2022-12-17T21:52:08.454Z,87.45
2022-12-17T21:54:40.302Z,89.90
2022-12-17T21:57:09.435Z,90.20
2022-12-17T21:59:38.418Z,74.35
2022-12-17T22:02:07.376Z,81.07
2022-12-17T22:04:36.451Z,73.25
2022-12-17T22:07:17.388Z,76.22
2022-12-17T22:10:22.535Z,78.50
2022-12-17T22:13:00.611Z,76.07
2022-12-17T22:15:32.118Z,81.25
2022-12-17T22:18:05.282Z,65.00
2022-12-17T22:20:33.608Z,83.85
2022-12-17T22:23:04.810Z,61.13
2022-12-17T22:25:33.230Z,69.95
2022-12-17T22:28:01.497Z,87.43
2022-12-17T22:30:47.344Z,70.95
2022-12-17T22:33:39.692Z,51.95
2022-12-17T22:38:41.682Z,72.95
2022-12-17T22:43:03.241Z,84.72
2022-12-17T22:44:43.046Z,83.65
2022-12-17T22:44:53.268Z,96.30
2022-12-17T22:47:22.491Z,92.13
2022-12-17T22:49:50.791Z,95.60
2022-12-17T22:52:20.379Z,70.32
2022-12-17T22:54:50.432Z,80.88
2022-12-17T22:57:37.379Z,79.65
2022-12-17T23:00:13.108Z,83.28
2022-12-17T23:02:41.354Z,93.47
2022-12-17T23:05:10.441Z,66.90
2022-12-17T23:07:38.661Z,75.63
2022-12-17T23:10:09.011Z,85.50
2022-12-17T23:12:52.508Z,83.13
2022-12-17T23:15:24.564Z,82.28
2022-12-17T23:17:54.526Z,89.63
2022-12-17T23:20:23.695Z,92.90
2022-12-17T23:22:51.939Z,81.40
2022-12-17T23:25:22.489Z,75.13
2022-12-17T23:27:51.026Z,82.57
2022-12-17T23:30:20.677Z,71.28
2022-12-17T23:32:49.182Z,77.70
2022-12-17T23:35:17.506Z,64.32
2022-12-17T23:37:45.835Z,87.70
2022-12-17T23:40:14.832Z,72.72
2022-12-17T23:42:44.419Z,79.63
2022-12-17T23:45:13.704Z,84.17
2022-12-17T23:47:42.079Z,76.07
2022-12-17T23:50:11.223Z,66.38
2022-12-17T23:52:39.611Z,79.90
2022-12-17T23:55:08.733Z,72.95
2022-12-17T23:57:36.966Z,73.32
